createdAt,value
2019-01-28T00:00:40.121Z,35.3
2019-01-28T00:01:30.821Z,35.3
2019-01-28T00:02:20.236Z,34.9
2019-01-28T00:03:09.259Z,34.2
2019-01-28T00:03:59.588Z,33.1
2019-01-28T00:04:50.934Z,31.8
2019-01-28T00:05:40.476Z,30.6
2019-01-28T00:06:30.819Z,29.6
2019-01-28T00:07:20.536Z,31.6
2019-01-28T00:08:10.623Z,33.3
2019-01-28T00:09:01.393Z,34.3
2019-01-28T00:09:50.266Z,34.9
2019-01-28T00:10:41.103Z,35.1
2019-01-28T00:11:30.596Z,35
2019-01-28T00:12:22.551Z,34.5
2019-01-28T00:13:10.972Z,33.6
2019-01-28T00:14:01.841Z,32.5
2019-01-28T00:14:51.982Z,31.2
2019-01-28T00:15:40.385Z,30.2
2019-01-28T00:16:31.470Z,32.3
2019-01-28T00:17:21.628Z,33.8
2019-01-28T00:18:12.001Z,34.6
2019-01-28T00:19:01.695Z,35.1
2019-01-28T00:19:51.258Z,35.2
2019-01-28T00:20:41.795Z,35.1
2019-01-28T00:21:32.310Z,34.6
2019-01-28T00:22:22.722Z,33.6
2019-01-28T00:23:11.098Z,32.4
2019-01-28T00:24:01.167Z,31.3
2019-01-28T00:24:51.220Z,31.3
2019-01-28T00:25:40.492Z,33.2
2019-01-28T00:26:31.907Z,34.4
2019-01-28T00:27:22.439Z,35.1
2019-01-28T00:28:12.025Z,35.3
2019-01-28T00:29:02.365Z,35.4
2019-01-28T00:29:52.918Z,35.1
2019-01-28T00:30:42.434Z,34.4
2019-01-28T00:31:31.419Z,33.4
2019-01-28T00:32:22.289Z,32.2
2019-01-28T00:33:12.094Z,31
2019-01-28T00:34:02.171Z,31.5
2019-01-28T00:34:53.072Z,33.3
2019-01-28T00:35:42.896Z,34.5
2019-01-28T00:36:32.899Z,35.1
2019-01-28T00:37:23.409Z,35.4
2019-01-28T00:38:13.746Z,35.4
2019-01-28T00:39:03.651Z,35.1
2019-01-28T00:39:53.003Z,34.4
2019-01-28T00:40:42.781Z,33.3
2019-01-28T00:41:32.656Z,32.1
2019-01-28T00:42:22.709Z,33
2019-01-28T00:43:13.251Z,34.4
2019-01-28T00:44:03.696Z,35.3
2019-01-28T00:44:53.921Z,35.7
2019-01-28T00:45:43.984Z,35.8
2019-01-28T00:46:33.771Z,35.7
2019-01-28T00:47:23.791Z,35.3
2019-01-28T00:48:13.614Z,34.4
2019-01-28T00:49:04.548Z,33.3
2019-01-28T00:49:54.021Z,32.1
2019-01-28T00:50:43.477Z,31.3
2019-01-28T00:51:34.626Z,33.3
2019-01-28T00:52:23.880Z,34.5
2019-01-28T00:53:15.393Z,35.3
2019-01-28T00:54:04.541Z,35.6
2019-01-28T00:54:54.038Z,35.6
2019-01-28T00:55:45.188Z,35.3
2019-01-28T00:56:34.417Z,34.6
2019-01-28T00:57:24.563Z,33.7
2019-01-28T00:58:15.364Z,32.5
2019-01-28T00:59:05.526Z,32.3
2019-01-28T00:59:55.245Z,34.1
2019-01-28T01:00:45.530Z,35.1
2019-01-28T01:01:34.581Z,35.6
2019-01-28T01:02:23.805Z,35.9
2019-01-28T01:03:13.582Z,35.9
2019-01-28T01:04:04.777Z,35.8
2019-01-28T01:04:55.673Z,35.2
2019-01-28T01:05:44.787Z,34.3
2019-01-28T01:06:34.908Z,33.2
2019-01-28T01:07:24.729Z,32.7
2019-01-28T01:08:15.050Z,34.3
2019-01-28T01:09:05.092Z,35.3
2019-01-28T01:09:55.209Z,35.8
2019-01-28T01:10:45.282Z,35.9
2019-01-28T01:11:34.512Z,35.8
2019-01-28T01:12:25.660Z,35.4
2019-01-28T01:13:15.169Z,34.6
2019-01-28T01:14:05.279Z,33.4
2019-01-28T01:14:54.722Z,32.3
2019-01-28T01:15:45.386Z,33.8
2019-01-28T01:16:35.451Z,35
2019-01-28T01:17:25.459Z,35.7
2019-01-28T01:18:14.166Z,36.1
2019-01-28T01:19:05.976Z,36
2019-01-28T01:19:56.309Z,35.8
2019-01-28T01:20:45.274Z,35.3
2019-01-28T01:21:35.844Z,34.4
2019-01-28T01:22:26.039Z,33.2
2019-01-28T01:23:16.008Z,32.9
2019-01-28T01:24:06.043Z,34.4
2019-01-28T01:24:56.944Z,35.4
2019-01-28T01:25:45.388Z,35.9
2019-01-28T01:26:35.926Z,36.1
2019-01-28T01:27:27.398Z,36
2019-01-28T01:28:16.053Z,35.8
2019-01-28T01:29:06.960Z,35.1
2019-01-28T01:29:56.428Z,34.1
2019-01-28T01:30:45.961Z,33
2019-01-28T01:31:37.118Z,32.7
2019-01-28T01:32:26.908Z,34.4
2019-01-28T01:33:16.500Z,35.3
2019-01-28T01:34:07.043Z,35.9
2019-01-28T01:34:57.395Z,36.1
2019-01-28T01:35:47.144Z,36
2019-01-28T01:36:37.153Z,35.8
2019-01-28T01:37:27.270Z,35.1
2019-01-28T01:38:17.262Z,34.1
2019-01-28T01:39:07.193Z,32.9
2019-01-28T01:39:57.730Z,32.3
2019-01-28T01:40:46.910Z,34.1
2019-01-28T01:41:36.507Z,35.1
2019-01-28T01:42:26.798Z,35.8
2019-01-28T01:43:17.160Z,35.9
2019-01-28T01:44:07.443Z,35.9
2019-01-28T01:44:58.350Z,35.5
2019-01-28T01:45:48.060Z,34.7
2019-01-28T01:46:37.304Z,33.7
2019-01-28T01:47:27.702Z,32.4
2019-01-28T01:48:18.120Z,33.3
2019-01-28T01:49:08.002Z,34.7
2019-01-28T01:49:58.090Z,35.5
2019-01-28T01:50:48.714Z,36
2019-01-28T01:51:38.524Z,36.1
2019-01-28T01:52:28.549Z,35.9
2019-01-28T01:53:18.034Z,35.6
2019-01-28T01:54:08.682Z,34.7
2019-01-28T01:54:58.759Z,33.6
2019-01-28T01:55:47.982Z,34.1
2019-01-28T01:56:38.599Z,35.2
2019-01-28T01:57:29.207Z,35.9
2019-01-28T01:58:21.384Z,36.3
2019-01-28T01:59:09.284Z,36.3
2019-01-28T01:59:58.017Z,36.2
2019-01-28T02:00:49.166Z,35.9
2019-01-28T02:01:38.908Z,35.1
2019-01-28T02:02:36.996Z,34.1
2019-01-28T02:03:18.788Z,32.8
2019-01-28T02:04:09.356Z,32.5
2019-01-28T02:04:59.959Z,34.3
2019-01-28T02:05:48.888Z,35.3
2019-01-28T02:06:39.758Z,35.9
2019-01-28T02:07:28.988Z,36.1
2019-01-28T02:08:19.886Z,36.1
2019-01-28T02:09:10.048Z,35.9
2019-01-28T02:09:58.895Z,35.4
2019-01-28T02:10:49.516Z,34.6
2019-01-28T02:11:39.297Z,33.7
2019-01-28T02:12:29.130Z,35.1
2019-01-28T02:13:19.126Z,35.9
2019-01-28T02:14:09.233Z,36.4
2019-01-28T02:14:59.838Z,36.6
2019-01-28T02:15:48.538Z,36.4
2019-01-28T02:16:39.915Z,36.3
2019-01-28T02:17:30.230Z,35.6
2019-01-28T02:18:20.865Z,34.7
2019-01-28T02:19:10.370Z,33.6
2019-01-28T02:20:00.264Z,34.9
2019-01-28T02:20:50.182Z,35.8
2019-01-28T02:21:40.255Z,36.4
2019-01-28T02:22:30.295Z,36.7
2019-01-28T02:23:20.352Z,36.6
2019-01-28T02:24:10.420Z,36.4
2019-01-28T02:25:00.912Z,36.2
2019-01-28T02:25:50.049Z,35.5
2019-01-28T02:26:41.457Z,34.6
2019-01-28T02:27:30.925Z,34.3
2019-01-28T02:28:20.814Z,35.5
2019-01-28T02:29:10.772Z,36.3
2019-01-28T02:30:01.508Z,36.7
2019-01-28T02:30:50.929Z,36.9
2019-01-28T02:31:41.560Z,36.8
2019-01-28T02:32:32.209Z,36.7
2019-01-28T02:33:21.484Z,36.4
2019-01-28T02:34:11.152Z,35.8
2019-01-28T02:35:01.921Z,35
2019-01-28T02:35:51.219Z,33.9
2019-01-28T02:36:41.405Z,34.7
2019-01-28T02:37:31.994Z,35.7
2019-01-28T02:38:21.822Z,36.3
2019-01-28T02:39:11.106Z,36.6
2019-01-28T02:40:02.384Z,36.6
2019-01-28T02:40:51.911Z,36.4
2019-01-28T02:41:41.271Z,36.1
2019-01-28T02:42:30.994Z,35.3
2019-01-28T02:43:21.819Z,34.3
2019-01-28T02:44:12.409Z,34.9
2019-01-28T02:45:02.578Z,35.9
2019-01-28T02:45:52.259Z,36.5
2019-01-28T02:46:42.042Z,36.8
2019-01-28T02:47:31.468Z,36.8
2019-01-28T02:48:21.681Z,36.6
2019-01-28T02:49:11.875Z,36.4
2019-01-28T02:50:03.098Z,35.8
2019-01-28T02:50:52.082Z,34.9
2019-01-28T02:51:41.613Z,33.9
2019-01-28T02:52:32.433Z,35.2
2019-01-28T02:53:22.838Z,36.1
2019-01-28T02:54:12.521Z,36.6
2019-01-28T02:55:02.898Z,36.8
2019-01-28T02:55:52.601Z,36.6
2019-01-28T02:56:42.689Z,36.4
2019-01-28T02:57:32.453Z,35.9
2019-01-28T02:58:23.068Z,35
2019-01-28T02:59:12.588Z,35.3
2019-01-28T03:00:02.814Z,36.3
2019-01-28T03:00:52.321Z,36.8
2019-01-28T03:01:42.774Z,37.1
2019-01-28T03:02:32.648Z,37.1
2019-01-28T03:03:23.217Z,36.9
2019-01-28T03:04:13.547Z,36.6
2019-01-28T03:05:03.430Z,36.1
2019-01-28T03:08:35.877Z,37.3
2019-01-28T03:09:26.450Z,37.1
2019-01-28T03:10:16.810Z,36.9
2019-01-28T03:11:06.569Z,36.5
2019-01-28T03:11:56.109Z,35.8
2019-01-28T03:12:45.871Z,35.3
2019-01-28T03:13:36.505Z,36.3
2019-01-28T03:14:25.963Z,36.9
2019-01-28T03:15:16.677Z,37.2
2019-01-28T03:16:06.931Z,37.3
2019-01-28T03:16:56.712Z,37.1
2019-01-28T03:17:46.539Z,36.9
2019-01-28T03:18:37.456Z,36.6
2019-01-28T03:19:27.129Z,35.9
2019-01-28T03:20:16.844Z,35.1
2019-01-28T03:21:08.106Z,35.7
2019-01-28T03:21:57.057Z,36.5
2019-01-28T03:22:47.172Z,36.9
2019-01-28T03:23:37.902Z,37.2
2019-01-28T03:24:27.173Z,37.1
2019-01-28T03:25:17.791Z,36.9
2019-01-28T03:26:07.616Z,36.6
2019-01-28T03:26:58.198Z,36
2019-01-28T03:27:50.140Z,36.3
2019-01-28T03:28:38.246Z,36.9
2019-01-28T03:29:28.099Z,37.3
2019-01-28T03:30:18.785Z,37.5
2019-01-28T03:31:08.882Z,37.6
2019-01-28T03:31:57.926Z,37.4
2019-01-28T03:32:48.254Z,37.1
2019-01-28T03:33:38.261Z,36.8
2019-01-28T03:34:28.116Z,36.2
2019-01-28T03:35:19.013Z,36.7
2019-01-28T03:36:08.802Z,37.2
2019-01-28T03:36:58.818Z,37.4
2019-01-28T03:37:48.954Z,37.6
2019-01-28T03:38:37.889Z,37.4
2019-01-28T03:39:28.268Z,37.2
2019-01-28T03:40:19.074Z,36.9
2019-01-28T03:41:08.621Z,36.3
2019-01-28T03:41:59.432Z,35.9
2019-01-28T03:42:49.285Z,36.8
2019-01-28T03:43:39.619Z,37.3
2019-01-28T03:44:29.056Z,37.6
2019-01-28T03:45:18.072Z,37.6
2019-01-28T03:46:11.758Z,37.5
2019-01-28T03:46:59.285Z,37.3
2019-01-28T03:47:48.824Z,37
2019-01-28T03:48:39.354Z,36.5
2019-01-28T03:49:28.561Z,35.9
2019-01-28T03:50:19.862Z,36.6
2019-01-28T03:51:10.225Z,37.2
2019-01-28T03:51:59.656Z,37.4
2019-01-28T03:52:50.030Z,37.6
2019-01-28T03:53:39.139Z,37.4
2019-01-28T03:54:30.039Z,37.2
2019-01-28T03:55:20.138Z,36.8
2019-01-28T03:56:10.395Z,36.2
2019-01-28T03:56:59.904Z,36.8
2019-01-28T03:57:50.639Z,37.3
2019-01-28T03:58:40.316Z,37.6
2019-01-28T03:59:30.449Z,37.7
2019-01-28T04:00:20.448Z,37.5
2019-01-28T04:01:09.942Z,37.3
2019-01-28T04:02:00.277Z,37
2019-01-28T04:02:50.503Z,36.5
2019-01-28T04:03:40.097Z,35.8
2019-01-28T04:04:30.147Z,36.1
2019-01-28T04:05:21.151Z,36.8
2019-01-28T04:06:10.796Z,37.3
2019-01-28T04:07:00.037Z,37.6
2019-01-28T04:07:50.435Z,37.6
2019-01-28T04:08:40.964Z,37.4
2019-01-28T04:09:31.059Z,37.3
2019-01-28T04:10:21.138Z,37
2019-01-28T04:11:10.326Z,36.5
2019-01-28T04:12:00.923Z,36.9
2019-01-28T04:12:51.594Z,37.4
2019-01-28T04:13:41.364Z,37.7
2019-01-28T04:14:30.318Z,37.8
2019-01-28T04:15:21.422Z,37.8
2019-01-28T04:16:11.420Z,37.5
2019-01-28T04:17:01.344Z,37.3
2019-01-28T04:17:51.376Z,36.9
2019-01-28T04:18:41.138Z,36.4
2019-01-28T04:19:31.526Z,37
2019-01-28T04:20:21.920Z,37.5
2019-01-28T04:21:11.583Z,37.8
2019-01-28T04:22:00.875Z,37.8
2019-01-28T04:22:51.025Z,37.8
2019-01-28T04:23:41.438Z,37.5
2019-01-28T04:24:30.657Z,37.3
2019-01-28T04:25:37.092Z,36.9
2019-01-28T04:26:11.647Z,36.8
2019-01-28T04:27:01.666Z,37.2
2019-01-28T04:27:51.746Z,37.6
2019-01-28T04:28:41.200Z,37.8
2019-01-28T04:29:32.112Z,37.9
2019-01-28T04:30:22.039Z,37.9
2019-01-28T04:31:12.229Z,37.6
2019-01-28T04:32:01.752Z,37.4
2019-01-28T04:32:52.437Z,37.1
2019-01-28T04:33:42.617Z,37.2
2019-01-28T04:34:32.218Z,37.6
2019-01-28T04:35:22.644Z,37.9
2019-01-28T04:36:12.749Z,37.9
2019-01-28T04:37:01.594Z,37.9
2019-01-28T04:37:52.972Z,37.6
2019-01-28T04:38:42.581Z,37.4
2019-01-28T04:39:32.782Z,37
2019-01-28T04:40:22.689Z,36.9
2019-01-28T04:41:13.236Z,37.5
2019-01-28T04:42:03.301Z,37.8
2019-01-28T04:42:53.034Z,37.9
2019-01-28T04:43:42.285Z,37.9
2019-01-28T04:44:33.768Z,37.7
2019-01-28T04:45:23.516Z,37.4
2019-01-28T04:46:13.318Z,37.1
2019-01-28T04:47:03.324Z,36.6
2019-01-28T04:47:53.858Z,36.8
2019-01-28T04:48:43.486Z,37.4
2019-01-28T04:49:33.821Z,37.8
2019-01-28T04:50:23.054Z,37.9
2019-01-28T04:51:13.321Z,38
2019-01-28T04:52:03.368Z,37.9
2019-01-28T04:52:53.300Z,37.8
2019-01-28T04:53:43.703Z,37.5
2019-01-28T04:54:34.099Z,37.2
2019-01-28T04:55:23.718Z,37
2019-01-28T04:56:13.629Z,37.5
2019-01-28T04:57:04.035Z,37.9
2019-01-28T04:57:54.711Z,38.1
2019-01-28T04:58:43.888Z,38.1
2019-01-28T04:59:34.480Z,38.1
2019-01-28T05:00:25.109Z,37.9
2019-01-28T05:01:14.536Z,37.6
2019-01-28T05:02:04.603Z,37.4
2019-01-28T05:02:54.469Z,36.9
2019-01-28T05:03:44.149Z,37.1
2019-01-28T05:04:34.302Z,37.6
2019-01-28T05:05:24.685Z,37.8
2019-01-28T05:06:16.762Z,37.9
2019-01-28T05:07:04.412Z,38
2019-01-28T05:07:55.115Z,37.8
2019-01-28T05:08:44.506Z,37.5
2019-01-28T05:09:34.947Z,37.3
2019-01-28T05:10:24.437Z,36.8
2019-01-28T05:11:13.904Z,36.9
2019-01-28T05:12:04.869Z,37.5
2019-01-28T05:12:54.666Z,37.8
2019-01-28T05:13:44.641Z,37.9
2019-01-28T05:14:33.622Z,37.9
2019-01-28T05:15:25.448Z,37.7
2019-01-28T05:16:15.082Z,37.4
2019-01-28T05:17:04.607Z,37.1
2019-01-28T05:17:53.872Z,36.7
2019-01-28T05:18:45.297Z,36.8
2019-01-28T05:19:36.844Z,37.4
2019-01-28T05:20:25.719Z,37.8
2019-01-28T05:21:15.962Z,37.9
2019-01-28T05:22:05.506Z,37.9
2019-01-28T05:22:54.886Z,37.6
2019-01-28T05:23:46.103Z,37.4
2019-01-28T05:24:35.836Z,37.1
2019-01-28T05:25:25.481Z,36.6
2019-01-28T05:26:16.621Z,36.9
2019-01-28T05:27:05.817Z,37.5
2019-01-28T05:27:55.921Z,37.8
2019-01-28T05:28:45.411Z,38
2019-01-28T05:29:35.181Z,38.1
2019-01-28T05:30:25.896Z,37.9
2019-01-28T05:31:15.286Z,37.7
2019-01-28T05:32:05.941Z,37.5
2019-01-28T05:32:56.098Z,37.1
2019-01-28T05:33:46.046Z,36.9
2019-01-28T05:34:36.023Z,37.5
2019-01-28T05:35:26.460Z,37.8
2019-01-28T05:36:16.075Z,38
2019-01-28T05:37:07.278Z,38
2019-01-28T05:37:57.426Z,37.8
2019-01-28T05:38:46.557Z,37.6
2019-01-28T05:39:36.863Z,37.3
2019-01-28T05:40:27.028Z,36.8
2019-01-28T05:41:17.036Z,37.4
2019-01-28T05:42:06.543Z,37.8
2019-01-28T05:42:56.912Z,38
2019-01-28T05:43:46.000Z,38.1
2019-01-28T05:44:36.664Z,38.1
2019-01-28T05:45:27.278Z,37.9
2019-01-28T05:46:16.865Z,37.7
2019-01-28T05:47:06.888Z,37.5
2019-01-28T05:47:57.530Z,37.1
2019-01-28T05:48:46.983Z,37
2019-01-28T05:49:37.330Z,37.6
2019-01-28T05:50:26.559Z,37.9
2019-01-28T05:51:17.142Z,38
2019-01-28T05:52:07.232Z,38.1
2019-01-28T05:52:57.894Z,37.8
2019-01-28T05:53:48.074Z,37.6
2019-01-28T05:54:38.165Z,37.3
2019-01-28T05:55:27.916Z,36.9
2019-01-28T05:56:17.156Z,37.1
2019-01-28T05:57:09.502Z,37.6
2019-01-28T05:57:58.697Z,38
2019-01-28T05:58:48.246Z,38.1
2019-01-28T05:59:37.706Z,38.2
2019-01-28T06:00:28.299Z,38.1
2019-01-28T06:01:18.039Z,37.9
2019-01-28T06:02:08.942Z,37.7
2019-01-28T06:02:58.557Z,37.4
2019-01-28T06:03:48.822Z,37
2019-01-28T06:06:36.444Z,38
2019-01-28T06:07:41.491Z,38.1
2019-01-28T06:08:17.239Z,37.9
2019-01-28T06:09:07.113Z,37.8
2019-01-28T06:09:56.981Z,37.6
2019-01-28T06:11:01.458Z,37.3
2019-01-28T06:12:06.331Z,36.6
2019-01-28T06:12:33.000Z,37.3
2019-01-28T06:13:36.789Z,37.4
2019-01-28T06:14:41.126Z,37.7
2019-01-28T06:15:03.227Z,37.5
2019-01-28T06:15:52.996Z,37.4
2019-01-28T06:16:42.493Z,37.2
2019-01-28T06:17:41.000Z,36.8
2019-01-28T06:18:23.290Z,35.9
2019-01-28T06:19:40.308Z,35.3
2019-01-28T06:20:02.830Z,34
2019-01-28T06:20:51.618Z,33.6
2019-01-28T06:21:42.473Z,32.9
2019-01-28T06:22:46.113Z,32.4
2019-01-28T06:23:21.896Z,31.8
2019-01-28T06:24:27.428Z,31.4
2019-01-28T06:25:02.659Z,31
2019-01-28T06:25:52.507Z,30.8
2019-01-28T06:26:42.547Z,30.6
2019-01-28T06:27:33.272Z,30.3
2019-01-28T06:28:22.237Z,30.1
2019-01-28T06:29:13.227Z,29.9
2019-01-28T06:30:16.767Z,29.7
2019-01-28T06:31:06.909Z,29.6
2019-01-28T06:31:43.679Z,29.4
2019-01-28T06:32:47.172Z,29.3
2019-01-28T06:33:22.722Z,29.1
2019-01-28T07:06:36.666Z,24.8
2019-01-28T07:07:26.551Z,24.6
2019-01-28T07:08:16.815Z,24.5
2019-01-28T07:09:07.154Z,24.5
2019-01-28T07:09:55.856Z,24.5
2019-01-28T07:10:46.666Z,24.3
2019-01-28T07:11:36.558Z,24.1
2019-01-28T07:12:26.220Z,24.1
2019-01-28T07:13:16.563Z,24
2019-01-28T07:14:07.163Z,23.9
2019-01-28T07:14:56.699Z,23.8
2019-01-28T07:15:47.578Z,23.7
2019-01-28T07:16:37.450Z,23.6
2019-01-28T07:17:27.423Z,23.5
2019-01-28T07:18:17.444Z,23.4
2019-01-28T07:19:07.245Z,23.3
2019-01-28T07:19:56.253Z,23.3
2019-01-28T07:20:47.345Z,23.2
2019-01-28T07:21:36.313Z,23.1
2019-01-28T07:22:26.668Z,23
2019-01-28T07:23:17.791Z,22.8
2019-01-28T07:24:08.152Z,22.8
2019-01-28T07:24:57.370Z,22.7
2019-01-28T07:25:47.998Z,22.6
2019-01-28T07:26:37.452Z,22.5
2019-01-28T07:27:27.372Z,22.4
2019-01-28T07:28:17.932Z,22.4
2019-01-28T07:29:07.994Z,22.4
2019-01-28T07:29:57.479Z,22.3
2019-01-28T07:30:48.067Z,22.3
2019-01-28T07:31:37.344Z,22.3
2019-01-28T07:32:27.737Z,22.3
2019-01-28T07:33:16.867Z,22.2
2019-01-28T07:34:07.507Z,22.2
2019-01-28T07:34:57.664Z,22.2
2019-01-28T07:35:48.161Z,22.1
2019-01-28T07:36:37.682Z,22.1
2019-01-28T07:37:27.782Z,22.2
2019-01-28T07:38:17.742Z,22.2
2019-01-28T07:39:09.304Z,22.2
2019-01-28T07:39:58.647Z,22.2
2019-01-28T07:40:48.202Z,22.2
2019-01-28T07:41:38.221Z,22.1
2019-01-28T07:42:29.134Z,22.1
2019-01-28T07:43:19.161Z,22.1
2019-01-28T07:44:08.366Z,22.1
2019-01-28T07:44:58.692Z,22.1
2019-01-28T07:45:55.786Z,22.1
2019-01-28T07:46:38.397Z,22.1
2019-01-28T07:47:28.576Z,22.1
2019-01-28T07:48:18.913Z,22.1
2019-01-28T07:49:09.546Z,22.1
2019-01-28T07:49:58.774Z,22.1
2019-01-28T07:50:48.358Z,22.1
2019-01-28T07:51:39.491Z,22.1
2019-01-28T07:52:29.557Z,22.1
2019-01-28T07:53:19.538Z,22.1
2019-01-28T07:54:09.115Z,22.1
2019-01-28T07:54:59.436Z,22.1
2019-01-28T07:55:49.750Z,22.1
2019-01-28T07:56:39.833Z,22
2019-01-28T07:57:30.173Z,22
2019-01-28T07:58:19.901Z,21.9
2019-01-28T07:59:09.656Z,21.8
2019-01-28T07:59:59.743Z,21.7
2019-01-28T08:00:50.364Z,21.6
2019-01-28T08:01:40.412Z,21.5
2019-01-28T08:02:29.603Z,21.4
2019-01-28T08:03:20.243Z,21.3
2019-01-28T08:04:10.284Z,21.3
2019-01-28T08:05:00.310Z,21.2
2019-01-28T08:07:30.225Z,21.1
2019-01-28T08:08:20.350Z,21.1
2019-01-28T08:09:10.304Z,21.1
2019-01-28T08:10:00.664Z,21.1
2019-01-28T08:10:50.540Z,21.1
2019-01-28T08:11:40.802Z,21
2019-01-28T08:12:30.810Z,21
2019-01-28T08:13:21.201Z,21
2019-01-28T08:14:11.047Z,21
2019-01-28T08:15:01.366Z,21
2019-01-28T08:15:51.364Z,21
2019-01-28T08:16:41.729Z,20.9
2019-01-28T08:17:30.901Z,21
2019-01-28T08:18:20.794Z,21
2019-01-28T08:19:11.577Z,20.9
2019-01-28T08:20:01.167Z,20.9
2019-01-28T08:20:51.752Z,20.9
2019-01-28T08:21:41.199Z,20.9
2019-01-28T08:22:31.263Z,20.9
2019-01-28T08:23:22.173Z,20.9
2019-01-28T08:24:12.268Z,20.9
2019-01-28T08:25:01.976Z,20.9
2019-01-28T08:25:51.783Z,20.9
2019-01-28T08:26:42.422Z,19.6
2019-01-28T08:27:31.021Z,19.4
2019-01-28T08:28:21.937Z,21.1
2019-01-28T08:29:11.453Z,22.4
2019-01-28T08:30:02.146Z,23.6
2019-01-28T08:30:52.131Z,24.9
2019-01-28T08:31:42.534Z,26
2019-01-28T08:32:32.662Z,27.1
2019-01-28T08:33:21.825Z,28
2019-01-28T08:34:12.319Z,28.9
2019-01-28T08:35:02.723Z,29.8
2019-01-28T08:35:52.418Z,30.5
2019-01-28T08:36:42.756Z,31
2019-01-28T08:37:32.078Z,31.2
2019-01-28T08:38:22.293Z,31.3
2019-01-28T08:39:12.941Z,31.4
2019-01-28T08:40:03.990Z,31.9
2019-01-28T08:40:52.498Z,31.9
2019-01-28T08:41:42.322Z,31.9
2019-01-28T08:42:31.755Z,31.9
2019-01-28T08:43:24.597Z,31.8
2019-01-28T08:44:12.798Z,31.6
2019-01-28T08:45:02.610Z,31.4
2019-01-28T08:45:54.805Z,31.2
2019-01-28T08:46:43.160Z,30.9
2019-01-28T08:47:33.267Z,30.8
2019-01-28T08:48:29.039Z,30.5
2019-01-28T08:49:12.318Z,30.2
2019-01-28T08:50:02.930Z,30
2019-01-28T08:50:52.974Z,29.4
2019-01-28T08:51:43.542Z,29.1
2019-01-28T08:52:33.647Z,28.8
2019-01-28T08:53:22.859Z,28.5
2019-01-28T08:54:13.167Z,28.3
2019-01-28T08:55:03.855Z,28.1
2019-01-28T08:55:53.316Z,27.9
2019-01-28T08:56:44.091Z,27.8
2019-01-28T08:57:32.842Z,27.3
2019-01-28T08:58:23.465Z,27.3
2019-01-28T08:59:12.954Z,28.2
2019-01-28T09:00:03.561Z,28.9
2019-01-28T09:00:53.977Z,29.7
2019-01-28T09:01:44.037Z,30.5
2019-01-28T09:02:33.509Z,31.3
2019-01-28T09:03:23.839Z,31.6
2019-01-28T09:04:13.854Z,31.6
2019-01-28T09:05:04.374Z,31.6
2019-01-28T09:05:53.979Z,31.6
2019-01-28T09:06:43.729Z,31.6
2019-01-28T09:07:34.081Z,31.8
2019-01-28T09:08:23.334Z,31.9
2019-01-28T09:09:14.221Z,31.5
2019-01-28T09:10:04.696Z,31.4
2019-01-28T09:10:53.481Z,31.3
2019-01-28T09:11:44.648Z,31.2
2019-01-28T09:12:34.451Z,31
2019-01-28T09:13:24.192Z,30.8
2019-01-28T09:14:14.511Z,30.6
2019-01-28T09:15:06.867Z,30.4
2019-01-28T09:15:54.455Z,30.3
2019-01-28T09:16:44.397Z,30.1
2019-01-28T09:17:34.810Z,29.9
2019-01-28T09:18:32.240Z,29.7
2019-01-28T09:19:15.640Z,29.1
2019-01-28T09:20:07.211Z,28.8
2019-01-28T09:20:55.761Z,28.5
2019-01-28T09:21:45.318Z,28.3
2019-01-28T09:22:35.368Z,28.1
2019-01-28T09:23:25.631Z,27.9
2019-01-28T09:24:15.303Z,27.3
2019-01-28T09:25:04.723Z,27.6
2019-01-28T09:25:56.374Z,28.5
2019-01-28T09:26:45.105Z,29.3
2019-01-28T09:27:34.940Z,30.1
2019-01-28T09:28:24.923Z,30.9
2019-01-28T09:29:14.443Z,31.6
2019-01-28T09:30:06.055Z,31.4
2019-01-28T09:30:57.363Z,30.8
2019-01-28T09:31:44.923Z,30.3
2019-01-28T09:32:36.262Z,30.1
2019-01-28T09:33:25.865Z,29.8
2019-01-28T09:34:16.990Z,29.5
2019-01-28T09:35:06.003Z,29.3
2019-01-28T09:35:57.044Z,29.1
2019-01-28T09:36:46.367Z,28.9
2019-01-28T09:37:36.731Z,28.7
2019-01-28T09:38:25.943Z,28.5
2019-01-28T09:39:15.851Z,28.3
2019-01-28T09:40:06.663Z,27.9
2019-01-28T09:40:56.626Z,27.6
2019-01-28T09:41:46.723Z,27.4
2019-01-28T09:42:36.985Z,27.3
2019-01-28T09:43:28.538Z,27.1
2019-01-28T09:44:17.069Z,26.6
2019-01-28T09:45:06.795Z,27.1
2019-01-28T09:45:57.268Z,28.2
2019-01-28T09:46:46.922Z,29.1
2019-01-28T09:47:37.617Z,29.9
2019-01-28T09:48:34.686Z,30.8
2019-01-28T09:49:19.405Z,31.6
2019-01-28T09:50:08.012Z,31.2
2019-01-28T09:50:57.496Z,30.8
2019-01-28T09:51:47.462Z,30.5
2019-01-28T09:52:37.887Z,30.3
2019-01-28T09:53:33.215Z,30
2019-01-28T09:54:17.727Z,29.8
2019-01-28T09:55:07.435Z,29.6
2019-01-28T09:55:57.919Z,29.3
2019-01-28T09:56:47.217Z,29.1
2019-01-28T09:57:37.817Z,28.9
2019-01-28T09:58:28.345Z,28.7
2019-01-28T09:59:18.194Z,28.4
2019-01-28T10:00:08.744Z,28.2
2019-01-28T10:01:48.569Z,27.5
2019-01-28T10:02:37.829Z,27.3
2019-01-28T10:03:28.156Z,27.1
2019-01-28T10:04:18.179Z,26.6
2019-01-28T10:05:08.232Z,27.5
2019-01-28T10:07:35.614Z,30
2019-01-28T10:08:25.465Z,31.1
2019-01-28T10:09:19.946Z,31.8
2019-01-28T10:10:06.366Z,31.5
2019-01-28T10:10:56.161Z,31.3
2019-01-28T10:11:46.256Z,31.1
2019-01-28T10:12:38.604Z,30.9
2019-01-28T10:13:25.742Z,30.7
2019-01-28T10:14:16.078Z,30.4
2019-01-28T10:15:05.919Z,30.3
2019-01-28T10:15:56.791Z,30
2019-01-28T10:16:47.053Z,29.8
2019-01-28T10:17:36.565Z,29.5
2019-01-28T10:18:26.663Z,29.3
2019-01-28T10:19:16.678Z,29.1
2019-01-28T10:20:06.073Z,28.8
2019-01-28T10:20:56.260Z,28.4
2019-01-28T10:21:46.610Z,28.1
2019-01-28T10:22:36.900Z,27.9
2019-01-28T10:23:28.567Z,27.7
2019-01-28T10:24:17.593Z,27.2
2019-01-28T10:25:06.512Z,27.4
2019-01-28T10:26:01.027Z,28.4
2019-01-28T10:26:46.412Z,29.3
2019-01-28T10:27:36.970Z,30.1
2019-01-28T10:28:27.870Z,30.9
2019-01-28T10:29:16.533Z,31.6
2019-01-28T10:30:07.297Z,31.6
2019-01-28T10:30:56.657Z,31.5
2019-01-28T10:31:47.812Z,31.5
2019-01-28T10:32:45.525Z,31.6
2019-01-28T10:33:27.399Z,31.6
2019-01-28T10:34:17.254Z,31.8
2019-01-28T10:35:07.812Z,31.9
2019-01-28T10:35:56.489Z,32.1
2019-01-28T10:36:47.087Z,32.2
2019-01-28T10:37:36.824Z,31.9
2019-01-28T10:38:28.539Z,31.8
2019-01-28T10:39:17.859Z,31.6
2019-01-28T10:40:10.239Z,31.4
2019-01-28T10:40:57.734Z,31.1
2019-01-28T10:41:47.452Z,30.9
2019-01-28T10:42:37.791Z,30.8
2019-01-28T10:43:28.624Z,30.6
2019-01-28T10:44:19.829Z,30.4
2019-01-28T10:45:07.731Z,30.2
2019-01-28T10:45:58.557Z,30.1
2019-01-28T10:46:48.932Z,29.9
2019-01-28T10:47:38.104Z,29.3
2019-01-28T10:48:27.832Z,28.9
2019-01-28T10:49:17.815Z,28.7
2019-01-28T10:50:08.711Z,28.5
2019-01-28T10:50:59.471Z,28.3
2019-01-28T10:51:48.321Z,28.1
2019-01-28T10:52:38.726Z,27.7
2019-01-28T10:53:29.072Z,27.5
2019-01-28T10:54:18.533Z,28.6
2019-01-28T10:55:08.690Z,29.5
2019-01-28T10:55:59.473Z,30.2
2019-01-28T10:56:47.936Z,30.6
2019-01-28T10:57:39.333Z,31.1
2019-01-28T10:58:29.430Z,31.4
2019-01-28T10:59:19.474Z,31.5
2019-01-28T11:00:16.293Z,31.6
2019-01-28T11:00:59.560Z,30.8
2019-01-28T11:01:49.443Z,30.2
2019-01-28T11:02:39.953Z,28.6
2019-01-28T11:03:28.475Z,27.4
2019-01-28T11:04:19.080Z,26.1
2019-01-28T11:05:09.656Z,24.8
2019-01-28T11:05:59.352Z,23.1
2019-01-28T11:06:50.269Z,21.6
2019-01-28T11:07:39.998Z,21.2
2019-01-28T11:08:29.000Z,21.2
2019-01-28T11:09:19.426Z,22.7
2019-01-28T11:10:10.684Z,24.4
2019-01-28T11:11:00.524Z,26
2019-01-28T11:11:52.940Z,27.4
2019-01-28T11:12:41.510Z,28.8
2019-01-28T11:13:30.251Z,29.9
2019-01-28T11:14:21.308Z,31.1
2019-01-28T11:15:09.992Z,31.7
2019-01-28T11:16:01.788Z,31.8
2019-01-28T11:16:52.279Z,31.9
2019-01-28T11:17:41.483Z,31.9
2019-01-28T11:18:32.020Z,31.9
2019-01-28T11:19:20.190Z,32.1
2019-01-28T11:20:11.893Z,32.3
2019-01-28T11:21:02.169Z,31.9
2019-01-28T11:21:53.220Z,31.8
2019-01-28T11:22:40.421Z,31.8
2019-01-28T11:23:33.347Z,31.6
2019-01-28T11:24:21.758Z,31.5
2019-01-28T11:25:11.723Z,31.4
2019-01-28T11:26:02.325Z,31.3
2019-01-28T11:26:52.145Z,31.1
2019-01-28T11:27:43.267Z,30.9
2019-01-28T11:28:33.077Z,30.8
2019-01-28T11:29:23.036Z,30.6
2019-01-28T11:30:14.102Z,30.5
2019-01-28T11:31:02.586Z,29.6
2019-01-28T11:31:52.873Z,29.7
2019-01-28T11:32:43.141Z,30.5
2019-01-28T11:33:31.479Z,30.9
2019-01-28T11:34:22.793Z,31.1
2019-01-28T11:35:13.231Z,31.3
2019-01-28T11:36:11.589Z,31.6
2019-01-28T11:36:52.363Z,31.8
2019-01-28T11:37:43.573Z,32
2019-01-28T11:38:32.653Z,32.2
2019-01-28T11:39:22.456Z,32.4
2019-01-28T11:40:13.278Z,32.6
2019-01-28T11:41:04.112Z,32.1
2019-01-28T11:41:53.161Z,31.9
2019-01-28T11:42:45.351Z,31.8
2019-01-28T11:43:33.413Z,31.6
2019-01-28T11:44:22.887Z,31.4
2019-01-28T11:45:14.314Z,31.3
2019-01-28T11:46:03.977Z,31.1
2019-01-28T11:46:53.499Z,30.9
2019-01-28T11:47:44.250Z,30.8
2019-01-28T11:48:35.059Z,30.6
2019-01-28T11:49:24.486Z,30.4
2019-01-28T11:50:14.076Z,30.4
2019-01-28T11:51:05.456Z,29.8